sensor_id;sensor_type;location;lat;lon;timestamp;P1;durP1;ratioP1;P2;durP2;ratioP2
69034;SDS011;56091;55.756;37.412;2023-04-30T00:04:05;17.30;;;7.77;;
69034;SDS011;56091;55.756;37.412;2023-04-30T00:09:06;21.40;;;8.33;;
69034;SDS011;56091;55.756;37.412;2023-04-30T00:14:07;17.88;;;8.38;;
69034;SDS011;56091;55.756;37.412;2023-04-30T00:19:11;22.40;;;9.07;;
69034;SDS011;56091;55.756;37.412;2023-04-30T00:24:12;35.75;;;9.93;;
69034;SDS011;56091;55.756;37.412;2023-04-30T00:29:13;18.20;;;8.53;;
69034;SDS011;56091;55.756;37.412;2023-04-30T00:34:14;20.20;;;8.25;;
69034;SDS011;56091;55.756;37.412;2023-04-30T00:39:14;23.60;;;8.93;;
69034;SDS011;56091;55.756;37.412;2023-04-30T00:44:16;28.75;;;9.15;;
69034;SDS011;56091;55.756;37.412;2023-04-30T00:49:16;21.93;;;9.50;;
69034;SDS011;56091;55.756;37.412;2023-04-30T00:54:19;19.23;;;8.27;;
69034;SDS011;56091;55.756;37.412;2023-04-30T00:59:20;21.70;;;8.85;;
69034;SDS011;56091;55.756;37.412;2023-04-30T01:04:21;18.87;;;9.13;;
69034;SDS011;56091;55.756;37.412;2023-04-30T01:09:22;28.13;;;9.48;;
69034;SDS011;56091;55.756;37.412;2023-04-30T01:14:34;21.70;;;8.90;;
69034;SDS011;56091;55.756;37.412;2023-04-30T01:19:56;20.75;;;8.95;;
69034;SDS011;56091;55.756;37.412;2023-04-30T01:25:05;21.63;;;8.40;;
69034;SDS011;56091;55.756;37.412;2023-04-30T01:30:13;21.40;;;8.73;;
69034;SDS011;56091;55.756;37.412;2023-04-30T01:35:16;19.33;;;8.43;;
69034;SDS011;56091;55.756;37.412;2023-04-30T01:40:28;26.65;;;9.13;;
69034;SDS011;56091;55.756;37.412;2023-04-30T01:46:03;20.97;;;8.90;;
69034;SDS011;56091;55.756;37.412;2023-04-30T01:51:44;21.67;;;9.32;;
69034;SDS011;56091;55.756;37.412;2023-04-30T01:56:50;27.83;;;8.67;;
69034;SDS011;56091;55.756;37.412;2023-04-30T02:01:59;23.20;;;8.65;;
69034;SDS011;56091;55.756;37.412;2023-04-30T02:07:00;25.37;;;8.27;;
69034;SDS011;56091;55.756;37.412;2023-04-30T02:12:02;23.98;;;8.38;;
69034;SDS011;56091;55.756;37.412;2023-04-30T02:17:04;20.37;;;8.70;;
69034;SDS011;56091;55.756;37.412;2023-04-30T02:22:05;17.52;;;8.43;;
69034;SDS011;56091;55.756;37.412;2023-04-30T02:27:06;19.40;;;7.93;;
69034;SDS011;56091;55.756;37.412;2023-04-30T02:32:07;18.95;;;8.10;;
69034;SDS011;56091;55.756;37.412;2023-04-30T02:37:08;19.37;;;8.43;;
69034;SDS011;56091;55.756;37.412;2023-04-30T02:42:12;19.98;;;8.30;;
69034;SDS011;56091;55.756;37.412;2023-04-30T02:47:13;26.10;;;9.30;;
69034;SDS011;56091;55.756;37.412;2023-04-30T02:52:14;18.02;;;7.97;;
69034;SDS011;56091;55.756;37.412;2023-04-30T02:57:15;24.00;;;8.87;;
69034;SDS011;56091;55.756;37.412;2023-04-30T03:02:16;22.73;;;8.68;;
69034;SDS011;56091;55.756;37.412;2023-04-30T03:07:20;25.13;;;9.30;;
69034;SDS011;56091;55.756;37.412;2023-04-30T03:12:21;26.52;;;9.85;;
69034;SDS011;56091;55.756;37.412;2023-04-30T03:17:22;21.77;;;9.27;;
69034;SDS011;56091;55.756;37.412;2023-04-30T03:22:24;25.33;;;9.98;;
69034;SDS011;56091;55.756;37.412;2023-04-30T03:27:26;26.73;;;10.77;;
69034;SDS011;56091;55.756;37.412;2023-04-30T03:32:26;26.17;;;10.75;;
69034;SDS011;56091;55.756;37.412;2023-04-30T03:37:27;23.67;;;10.43;;
69034;SDS011;56091;55.756;37.412;2023-04-30T03:42:28;26.10;;;10.73;;
69034;SDS011;56091;55.756;37.412;2023-04-30T03:47:29;24.50;;;11.40;;
69034;SDS011;56091;55.756;37.412;2023-04-30T03:52:30;24.87;;;11.47;;
69034;SDS011;56091;55.756;37.412;2023-04-30T03:57:31;36.30;;;11.70;;
69034;SDS011;56091;55.756;37.412;2023-04-30T04:02:32;24.50;;;11.20;;
69034;SDS011;56091;55.756;37.412;2023-04-30T04:07:33;25.60;;;11.93;;
69034;SDS011;56091;55.756;37.412;2023-04-30T04:12:34;30.47;;;12.47;;
69034;SDS011;56091;55.756;37.412;2023-04-30T04:17:35;28.02;;;12.10;;
69034;SDS011;56091;55.756;37.412;2023-04-30T04:22:36;31.10;;;12.40;;
69034;SDS011;56091;55.756;37.412;2023-04-30T04:27:37;33.22;;;13.13;;
69034;SDS011;56091;55.756;37.412;2023-04-30T04:32:38;26.17;;;13.13;;
69034;SDS011;56091;55.756;37.412;2023-04-30T04:37:46;32.92;;;13.25;;
69034;SDS011;56091;55.756;37.412;2023-04-30T04:42:48;29.50;;;13.30;;
69034;SDS011;56091;55.756;37.412;2023-04-30T04:47:51;30.98;;;12.98;;
69034;SDS011;56091;55.756;37.412;2023-04-30T04:52:52;34.20;;;13.40;;
69034;SDS011;56091;55.756;37.412;2023-04-30T04:57:53;27.13;;;13.50;;
69034;SDS011;56091;55.756;37.412;2023-04-30T05:02:54;30.47;;;13.53;;
69034;SDS011;56091;55.756;37.412;2023-04-30T05:07:55;28.02;;;13.00;;
69034;SDS011;56091;55.756;37.412;2023-04-30T05:12:56;29.00;;;13.50;;
69034;SDS011;56091;55.756;37.412;2023-04-30T05:17:57;27.48;;;13.82;;
69034;SDS011;56091;55.756;37.412;2023-04-30T05:22:57;26.40;;;13.57;;
69034;SDS011;56091;55.756;37.412;2023-04-30T05:27:58;25.07;;;12.13;;
69034;SDS011;56091;55.756;37.412;2023-04-30T05:33:00;32.67;;;11.17;;
69034;SDS011;56091;55.756;37.412;2023-04-30T05:38:02;21.75;;;10.63;;
69034;SDS011;56091;55.756;37.412;2023-04-30T05:43:03;18.93;;;9.10;;
69034;SDS011;56091;55.756;37.412;2023-04-30T05:48:04;16.02;;;7.38;;
69034;SDS011;56091;55.756;37.412;2023-04-30T05:53:05;18.03;;;6.80;;
69034;SDS011;56091;55.756;37.412;2023-04-30T05:58:06;15.40;;;7.00;;
69034;SDS011;56091;55.756;37.412;2023-04-30T06:03:07;17.53;;;6.83;;
69034;SDS011;56091;55.756;37.412;2023-04-30T06:08:07;11.73;;;6.27;;
69034;SDS011;56091;55.756;37.412;2023-04-30T06:13:08;15.48;;;6.60;;
69034;SDS011;56091;55.756;37.412;2023-04-30T06:18:09;16.40;;;5.57;;
69034;SDS011;56091;55.756;37.412;2023-04-30T06:23:13;13.63;;;4.80;;
69034;SDS011;56091;55.756;37.412;2023-04-30T06:28:14;12.10;;;5.03;;
69034;SDS011;56091;55.756;37.412;2023-04-30T06:33:15;19.88;;;4.75;;
69034;SDS011;56091;55.756;37.412;2023-04-30T06:38:16;12.67;;;4.23;;
69034;SDS011;56091;55.756;37.412;2023-04-30T06:43:19;12.85;;;4.28;;
69034;SDS011;56091;55.756;37.412;2023-04-30T06:48:20;9.63;;;3.67;;
69034;SDS011;56091;55.756;37.412;2023-04-30T06:53:22;7.95;;;3.85;;
69034;SDS011;56091;55.756;37.412;2023-04-30T06:58:23;18.20;;;5.17;;
69034;SDS011;56091;55.756;37.412;2023-04-30T07:03:24;13.20;;;4.67;;
69034;SDS011;56091;55.756;37.412;2023-04-30T07:08:25;11.07;;;4.18;;
69034;SDS011;56091;55.756;37.412;2023-04-30T07:13:26;9.97;;;4.20;;
69034;SDS011;56091;55.756;37.412;2023-04-30T07:18:26;11.77;;;4.03;;
69034;SDS011;56091;55.756;37.412;2023-04-30T07:23:27;7.13;;;3.20;;
69034;SDS011;56091;55.756;37.412;2023-04-30T07:28:28;7.93;;;3.07;;
69034;SDS011;56091;55.756;37.412;2023-04-30T07:33:29;9.30;;;3.23;;
69034;SDS011;56091;55.756;37.412;2023-04-30T07:38:29;7.13;;;3.40;;
69034;SDS011;56091;55.756;37.412;2023-04-30T07:43:30;10.00;;;3.50;;
69034;SDS011;56091;55.756;37.412;2023-04-30T07:48:31;9.83;;;3.20;;
69034;SDS011;56091;55.756;37.412;2023-04-30T07:53:32;8.80;;;3.40;;
69034;SDS011;56091;55.756;37.412;2023-04-30T07:58:33;9.57;;;3.70;;
69034;SDS011;56091;55.756;37.412;2023-04-30T08:03:35;9.38;;;3.10;;
69034;SDS011;56091;55.756;37.412;2023-04-30T08:08:36;7.93;;;3.17;;
69034;SDS011;56091;55.756;37.412;2023-04-30T08:13:37;8.13;;;3.10;;
69034;SDS011;56091;55.756;37.412;2023-04-30T08:18:38;7.97;;;3.07;;
69034;SDS011;56091;55.756;37.412;2023-04-30T08:23:43;7.30;;;2.72;;
69034;SDS011;56091;55.756;37.412;2023-04-30T08:28:43;10.27;;;2.80;;
69034;SDS011;56091;55.756;37.412;2023-04-30T08:33:44;7.70;;;2.70;;
69034;SDS011;56091;55.756;37.412;2023-04-30T08:38:45;7.63;;;2.20;;
69034;SDS011;56091;55.756;37.412;2023-04-30T08:43:46;5.77;;;2.40;;
69034;SDS011;56091;55.756;37.412;2023-04-30T08:48:53;7.60;;;2.15;;
69034;SDS011;56091;55.756;37.412;2023-04-30T08:53:55;6.00;;;2.60;;
69034;SDS011;56091;55.756;37.412;2023-04-30T08:58:57;4.70;;;2.00;;
69034;SDS011;56091;55.756;37.412;2023-04-30T09:03:58;7.80;;;2.20;;
69034;SDS011;56091;55.756;37.412;2023-04-30T09:09:07;7.65;;;2.50;;
69034;SDS011;56091;55.756;37.412;2023-04-30T09:14:12;7.70;;;2.27;;
69034;SDS011;56091;55.756;37.412;2023-04-30T09:19:23;6.25;;;2.20;;
69034;SDS011;56091;55.756;37.412;2023-04-30T09:24:25;5.57;;;2.17;;
69034;SDS011;56091;55.756;37.412;2023-04-30T09:29:35;5.32;;;2.30;;
69034;SDS011;56091;55.756;37.412;2023-04-30T09:34:36;5.90;;;2.50;;
69034;SDS011;56091;55.756;37.412;2023-04-30T09:39:47;5.68;;;2.22;;
69034;SDS011;56091;55.756;37.412;2023-04-30T09:44:53;9.03;;;2.80;;
69034;SDS011;56091;55.756;37.412;2023-04-30T09:49:54;7.05;;;2.70;;
69034;SDS011;56091;55.756;37.412;2023-04-30T09:54:54;5.80;;;2.43;;
69034;SDS011;56091;55.756;37.412;2023-04-30T09:59:55;6.95;;;2.80;;
69034;SDS011;56091;55.756;37.412;2023-04-30T10:04:58;9.53;;;2.87;;
69034;SDS011;56091;55.756;37.412;2023-04-30T10:20:39;7.82;;;2.65;;
69034;SDS011;56091;55.756;37.412;2023-04-30T10:25:40;8.77;;;3.00;;
69034;SDS011;56091;55.756;37.412;2023-04-30T10:30:44;8.25;;;3.28;;
69034;SDS011;56091;55.756;37.412;2023-04-30T10:41:05;9.45;;;2.80;;
69034;SDS011;56091;55.756;37.412;2023-04-30T10:46:07;5.83;;;2.57;;
69034;SDS011;56091;55.756;37.412;2023-04-30T10:51:08;7.32;;;2.72;;
69034;SDS011;56091;55.756;37.412;2023-04-30T10:56:09;6.27;;;2.27;;
69034;SDS011;56091;55.756;37.412;2023-04-30T11:01:15;9.85;;;2.15;;
69034;SDS011;56091;55.756;37.412;2023-04-30T11:06:21;7.00;;;2.27;;
69034;SDS011;56091;55.756;37.412;2023-04-30T11:11:25;8.43;;;2.50;;
69034;SDS011;56091;55.756;37.412;2023-04-30T11:16:29;4.67;;;1.70;;
69034;SDS011;56091;55.756;37.412;2023-04-30T11:21:33;7.82;;;2.17;;
69034;SDS011;56091;55.756;37.412;2023-04-30T11:32:04;5.67;;;2.27;;
69034;SDS011;56091;55.756;37.412;2023-04-30T11:37:06;5.82;;;2.30;;
69034;SDS011;56091;55.756;37.412;2023-04-30T11:42:15;5.97;;;2.17;;
69034;SDS011;56091;55.756;37.412;2023-04-30T11:47:18;7.15;;;2.30;;
69034;SDS011;56091;55.756;37.412;2023-04-30T11:52:20;7.00;;;2.10;;
69034;SDS011;56091;55.756;37.412;2023-04-30T11:57:21;10.07;;;2.38;;
69034;SDS011;56091;55.756;37.412;2023-04-30T12:02:21;5.60;;;2.00;;
69034;SDS011;56091;55.756;37.412;2023-04-30T12:07:22;8.20;;;2.45;;
69034;SDS011;56091;55.756;37.412;2023-04-30T12:12:29;7.50;;;2.37;;
69034;SDS011;56091;55.756;37.412;2023-04-30T12:17:31;7.95;;;2.88;;
69034;SDS011;56091;55.756;37.412;2023-04-30T12:22:33;6.97;;;2.40;;
69034;SDS011;56091;55.756;37.412;2023-04-30T12:27:41;5.43;;;2.00;;
69034;SDS011;56091;55.756;37.412;2023-04-30T12:32:45;8.87;;;2.47;;
69034;SDS011;56091;55.756;37.412;2023-04-30T12:37:50;10.68;;;2.30;;
69034;SDS011;56091;55.756;37.412;2023-04-30T12:42:58;8.33;;;2.20;;
69034;SDS011;56091;55.756;37.412;2023-04-30T12:48:01;8.75;;;2.53;;
69034;SDS011;56091;55.756;37.412;2023-04-30T12:53:02;6.80;;;2.40;;
69034;SDS011;56091;55.756;37.412;2023-04-30T13:03:08;8.97;;;2.30;;
69034;SDS011;56091;55.756;37.412;2023-04-30T13:08:10;9.85;;;2.70;;
69034;SDS011;56091;55.756;37.412;2023-04-30T13:13:11;7.60;;;2.07;;
69034;SDS011;56091;55.756;37.412;2023-04-30T13:18:12;11.35;;;2.67;;
69034;SDS011;56091;55.756;37.412;2023-04-30T13:23:15;6.87;;;2.60;;
69034;SDS011;56091;55.756;37.412;2023-04-30T13:28:16;7.95;;;2.42;;
69034;SDS011;56091;55.756;37.412;2023-04-30T13:33:17;7.93;;;2.40;;
69034;SDS011;56091;55.756;37.412;2023-04-30T13:38:18;8.25;;;2.40;;
69034;SDS011;56091;55.756;37.412;2023-04-30T13:43:19;9.97;;;2.60;;
69034;SDS011;56091;55.756;37.412;2023-04-30T13:48:19;8.70;;;2.70;;
69034;SDS011;56091;55.756;37.412;2023-04-30T13:53:21;8.05;;;2.30;;
69034;SDS011;56091;55.756;37.412;2023-04-30T13:58:22;6.47;;;2.20;;
69034;SDS011;56091;55.756;37.412;2023-04-30T14:03:23;6.38;;;2.30;;
69034;SDS011;56091;55.756;37.412;2023-04-30T14:08:25;6.07;;;2.20;;
69034;SDS011;56091;55.756;37.412;2023-04-30T14:13:26;6.63;;;2.70;;
69034;SDS011;56091;55.756;37.412;2023-04-30T14:18:27;8.93;;;2.33;;
69034;SDS011;56091;55.756;37.412;2023-04-30T14:23:31;8.48;;;2.35;;
69034;SDS011;56091;55.756;37.412;2023-04-30T14:28:31;8.40;;;2.80;;
69034;SDS011;56091;55.756;37.412;2023-04-30T14:33:35;10.25;;;2.78;;
69034;SDS011;56091;55.756;37.412;2023-04-30T14:38:36;7.43;;;2.87;;
69034;SDS011;56091;55.756;37.412;2023-04-30T14:43:36;16.60;;;3.33;;
69034;SDS011;56091;55.756;37.412;2023-04-30T14:48:37;7.87;;;3.10;;
69034;SDS011;56091;55.756;37.412;2023-04-30T14:53:38;6.50;;;2.67;;
69034;SDS011;56091;55.756;37.412;2023-04-30T14:58:39;8.25;;;2.78;;
69034;SDS011;56091;55.756;37.412;2023-04-30T15:03:40;8.57;;;2.80;;
69034;SDS011;56091;55.756;37.412;2023-04-30T15:08:41;7.43;;;2.50;;
69034;SDS011;56091;55.756;37.412;2023-04-30T15:13:42;6.83;;;2.43;;
69034;SDS011;56091;55.756;37.412;2023-04-30T15:18:42;6.50;;;2.40;;
69034;SDS011;56091;55.756;37.412;2023-04-30T15:23:49;6.63;;;2.60;;
69034;SDS011;56091;55.756;37.412;2023-04-30T15:28:50;7.15;;;2.75;;
69034;SDS011;56091;55.756;37.412;2023-04-30T15:33:51;8.47;;;2.70;;
69034;SDS011;56091;55.756;37.412;2023-04-30T15:38:51;7.60;;;2.70;;
69034;SDS011;56091;55.756;37.412;2023-04-30T15:43:55;10.30;;;3.07;;
69034;SDS011;56091;55.756;37.412;2023-04-30T15:48:56;7.30;;;2.75;;
69034;SDS011;56091;55.756;37.412;2023-04-30T15:53:57;8.20;;;3.10;;
69034;SDS011;56091;55.756;37.412;2023-04-30T15:58:57;8.05;;;3.15;;
69034;SDS011;56091;55.756;37.412;2023-04-30T16:03:59;9.17;;;3.47;;
69034;SDS011;56091;55.756;37.412;2023-04-30T16:09:03;8.25;;;3.67;;
69034;SDS011;56091;55.756;37.412;2023-04-30T16:14:07;8.47;;;3.60;;
69034;SDS011;56091;55.756;37.412;2023-04-30T16:19:07;8.38;;;3.80;;
69034;SDS011;56091;55.756;37.412;2023-04-30T16:24:09;9.43;;;4.00;;
69034;SDS011;56091;55.756;37.412;2023-04-30T16:29:10;8.95;;;4.30;;
69034;SDS011;56091;55.756;37.412;2023-04-30T16:34:11;9.77;;;4.10;;
69034;SDS011;56091;55.756;37.412;2023-04-30T16:39:11;10.40;;;4.22;;
69034;SDS011;56091;55.756;37.412;2023-04-30T16:44:12;10.30;;;4.43;;
69034;SDS011;56091;55.756;37.412;2023-04-30T16:49:13;12.00;;;4.30;;
69034;SDS011;56091;55.756;37.412;2023-04-30T16:54:14;9.68;;;4.10;;
69034;SDS011;56091;55.756;37.412;2023-04-30T16:59:15;12.67;;;4.43;;
69034;SDS011;56091;55.756;37.412;2023-04-30T17:04:16;12.35;;;4.97;;
69034;SDS011;56091;55.756;37.412;2023-04-30T17:09:17;9.50;;;4.60;;
69034;SDS011;56091;55.756;37.412;2023-04-30T17:14:19;9.68;;;4.25;;
69034;SDS011;56091;55.756;37.412;2023-04-30T17:19:22;10.43;;;4.40;;
69034;SDS011;56091;55.756;37.412;2023-04-30T17:24:23;13.15;;;4.82;;
69034;SDS011;56091;55.756;37.412;2023-04-30T17:29:27;9.93;;;5.10;;
69034;SDS011;56091;55.756;37.412;2023-04-30T17:34:27;11.43;;;5.50;;
69034;SDS011;56091;55.756;37.412;2023-04-30T17:39:31;12.97;;;5.60;;
69034;SDS011;56091;55.756;37.412;2023-04-30T17:44:32;10.38;;;5.43;;
69034;SDS011;56091;55.756;37.412;2023-04-30T17:49:33;10.43;;;5.00;;
69034;SDS011;56091;55.756;37.412;2023-04-30T17:54:34;14.77;;;6.10;;
69034;SDS011;56091;55.756;37.412;2023-04-30T17:59:37;13.17;;;6.30;;
69034;SDS011;56091;55.756;37.412;2023-04-30T18:04:38;12.43;;;6.28;;
69034;SDS011;56091;55.756;37.412;2023-04-30T18:09:39;12.43;;;5.70;;
69034;SDS011;56091;55.756;37.412;2023-04-30T18:14:39;13.47;;;6.47;;
69034;SDS011;56091;55.756;37.412;2023-04-30T18:19:40;14.15;;;6.20;;
69034;SDS011;56091;55.756;37.412;2023-04-30T18:24:45;11.87;;;6.27;;
69034;SDS011;56091;55.756;37.412;2023-04-30T18:29:46;12.70;;;5.85;;
69034;SDS011;56091;55.756;37.412;2023-04-30T18:34:48;12.93;;;6.00;;
69034;SDS011;56091;55.756;37.412;2023-04-30T18:39:49;13.10;;;6.18;;
69034;SDS011;56091;55.756;37.412;2023-04-30T18:44:50;13.17;;;6.50;;
69034;SDS011;56091;55.756;37.412;2023-04-30T18:49:55;15.38;;;6.57;;
69034;SDS011;56091;55.756;37.412;2023-04-30T18:54:56;14.93;;;6.90;;
69034;SDS011;56091;55.756;37.412;2023-04-30T18:59:57;14.68;;;7.07;;
69034;SDS011;56091;55.756;37.412;2023-04-30T19:04:58;13.27;;;6.20;;
69034;SDS011;56091;55.756;37.412;2023-04-30T19:09:59;11.32;;;5.90;;
69034;SDS011;56091;55.756;37.412;2023-04-30T19:15:01;12.20;;;5.83;;
69034;SDS011;56091;55.756;37.412;2023-04-30T19:20:05;11.52;;;5.53;;
69034;SDS011;56091;55.756;37.412;2023-04-30T19:25:06;11.13;;;5.63;;
69034;SDS011;56091;55.756;37.412;2023-04-30T19:30:08;13.32;;;5.47;;
69034;SDS011;56091;55.756;37.412;2023-04-30T19:35:09;11.00;;;5.50;;
69034;SDS011;56091;55.756;37.412;2023-04-30T19:40:10;12.20;;;5.63;;
69034;SDS011;56091;55.756;37.412;2023-04-30T19:45:11;12.00;;;6.07;;
69034;SDS011;56091;55.756;37.412;2023-04-30T19:50:12;14.07;;;6.20;;
69034;SDS011;56091;55.756;37.412;2023-04-30T19:55:13;11.88;;;6.10;;
69034;SDS011;56091;55.756;37.412;2023-04-30T20:00:14;11.80;;;5.87;;
69034;SDS011;56091;55.756;37.412;2023-04-30T20:05:15;12.75;;;6.57;;
69034;SDS011;56091;55.756;37.412;2023-04-30T20:10:16;13.97;;;7.00;;
69034;SDS011;56091;55.756;37.412;2023-04-30T20:15:19;13.38;;;6.90;;
69034;SDS011;56091;55.756;37.412;2023-04-30T20:20:21;13.43;;;6.87;;
69034;SDS011;56091;55.756;37.412;2023-04-30T20:25:25;14.35;;;7.60;;
69034;SDS011;56091;55.756;37.412;2023-04-30T20:30:28;16.20;;;7.80;;
69034;SDS011;56091;55.756;37.412;2023-04-30T20:40:46;14.53;;;7.63;;
69034;SDS011;56091;55.756;37.412;2023-04-30T20:45:50;15.18;;;7.18;;
69034;SDS011;56091;55.756;37.412;2023-04-30T20:50:51;13.77;;;6.23;;
69034;SDS011;56091;55.756;37.412;2023-04-30T20:55:52;11.07;;;5.50;;
69034;SDS011;56091;55.756;37.412;2023-04-30T21:00:59;11.67;;;5.80;;
69034;SDS011;56091;55.756;37.412;2023-04-30T21:05:59;12.25;;;5.85;;
69034;SDS011;56091;55.756;37.412;2023-04-30T21:11:02;10.57;;;5.67;;
69034;SDS011;56091;55.756;37.412;2023-04-30T21:16:03;11.68;;;6.10;;
69034;SDS011;56091;55.756;37.412;2023-04-30T21:21:05;11.40;;;6.07;;
69034;SDS011;56091;55.756;37.412;2023-04-30T21:26:08;11.18;;;5.38;;
69034;SDS011;56091;55.756;37.412;2023-04-30T21:31:11;11.73;;;5.30;;
69034;SDS011;56091;55.756;37.412;2023-04-30T21:36:12;9.43;;;4.25;;
69034;SDS011;56091;55.756;37.412;2023-04-30T21:41:16;9.90;;;4.80;;
69034;SDS011;56091;55.756;37.412;2023-04-30T21:46:20;8.75;;;4.57;;
69034;SDS011;56091;55.756;37.412;2023-04-30T21:51:22;8.47;;;4.03;;
69034;SDS011;56091;55.756;37.412;2023-04-30T21:56:22;10.30;;;4.10;;
69034;SDS011;56091;55.756;37.412;2023-04-30T22:01:23;8.47;;;3.70;;
69034;SDS011;56091;55.756;37.412;2023-04-30T22:06:27;12.30;;;4.90;;
69034;SDS011;56091;55.756;37.412;2023-04-30T22:11:27;12.57;;;4.53;;
69034;SDS011;56091;55.756;37.412;2023-04-30T22:16:28;11.38;;;5.50;;
69034;SDS011;56091;55.756;37.412;2023-04-30T22:21:29;11.47;;;4.97;;
69034;SDS011;56091;55.756;37.412;2023-04-30T22:26:30;9.38;;;4.97;;
69034;SDS011;56091;55.756;37.412;2023-04-30T22:31:31;11.60;;;6.23;;
69034;SDS011;56091;55.756;37.412;2023-04-30T22:36:32;12.87;;;6.70;;
69034;SDS011;56091;55.756;37.412;2023-04-30T22:41:32;12.82;;;6.82;;
69034;SDS011;56091;55.756;37.412;2023-04-30T22:46:33;16.27;;;7.33;;
69034;SDS011;56091;55.756;37.412;2023-04-30T22:51:36;13.02;;;6.57;;
69034;SDS011;56091;55.756;37.412;2023-04-30T22:56:36;14.40;;;5.83;;
69034;SDS011;56091;55.756;37.412;2023-04-30T23:01:40;16.83;;;7.95;;
69034;SDS011;56091;55.756;37.412;2023-04-30T23:06:42;14.73;;;7.23;;
69034;SDS011;56091;55.756;37.412;2023-04-30T23:11:51;12.57;;;6.13;;
69034;SDS011;56091;55.756;37.412;2023-04-30T23:16:52;8.33;;;4.07;;
69034;SDS011;56091;55.756;37.412;2023-04-30T23:21:53;13.75;;;6.88;;
69034;SDS011;56091;55.756;37.412;2023-04-30T23:26:54;15.17;;;7.07;;
69034;SDS011;56091;55.756;37.412;2023-04-30T23:31:57;13.02;;;6.50;;
69034;SDS011;56091;55.756;37.412;2023-04-30T23:36:57;11.07;;;5.43;;
69034;SDS011;56091;55.756;37.412;2023-04-30T23:41:58;12.85;;;5.95;;
69034;SDS011;56091;55.756;37.412;2023-04-30T23:46:59;10.20;;;5.20;;
69034;SDS011;56091;55.756;37.412;2023-04-30T23:52:01;13.90;;;5.50;;
69034;SDS011;56091;55.756;37.412;2023-04-30T23:57:02;11.40;;;5.93;;
